Time;durP1;ratioP1;P1;durP2;ratioP2;P2;SDS_P1;SDS_P2;PMS_P1;PMS_P2;Temp;Humidity;BMP_temperature;BMP_pressure;BME280_temperature;BME280_humidity;BME280_pressure;Samples;Min_cycle;Max_cycle;Signal;HPM_P1;HPM_P2
2021/09/01 00:00:12;;;;;;;20.50;7.80;;;;;;;;;;5030796;28;20133;-84
2021/09/01 00:02:39;;;;;;;25.85;7.47;;;;;;;;;;5023340;28;20046;-83
2021/09/01 00:05:07;;;;;;;23.73;8.88;;;;;;;;;;5020309;28;20053;-85
2021/09/01 00:07:34;;;;;;;37.65;9.07;;;;;;;;;;5020047;28;20258;-85
2021/09/01 00:10:04;;;;;;;29.50;8.13;;;;;;;;;;5018701;28;20110;-83
2021/09/01 00:12:31;;;;;;;25.73;8.25;;;;;;;;;;5019068;28;20053;-84
2021/09/01 00:14:57;;;;;;;26.50;9.13;;;;;;;;;;5018945;28;20430;-84
2021/09/01 00:17:24;;;;;;;31.92;9.25;;;;;;;;;;5016944;28;20080;-84
2021/09/01 00:19:51;;;;;;;23.30;9.30;;;;;;;;;;5017352;28;20050;-84
2021/09/01 00:22:17;;;;;;;25.50;8.98;;;;;;;;;;5019017;28;20303;-84
2021/09/01 00:24:44;;;;;;;24.83;9.35;;;;;;;;;;5011508;28;20421;-84
2021/09/01 00:27:13;;;;;;;31.33;9.43;;;;;;;;;;4999269;28;20054;-84
2021/09/01 00:30:11;;;;;;;28.58;8.55;;;;;;;;;;5005582;28;20034;-83
2021/09/01 00:32:38;;;;;;;28.75;8.40;;;;;;;;;;5011905;28;20038;-83
2021/09/01 00:35:05;;;;;;;33.75;8.60;;;;;;;;;;5011878;28;20121;-84
2021/09/01 00:37:32;;;;;;;31.00;9.48;;;;;;;;;;5009139;28;20062;-84
2021/09/01 00:39:58;;;;;;;34.53;8.85;;;;;;;;;;4998661;28;20068;-84
2021/09/01 00:42:25;;;;;;;30.48;8.88;;;;;;;;;;4997514;28;20118;-84
2021/09/01 00:44:52;;;;;;;25.15;7.85;;;;;;;;;;4998166;28;20326;-84
2021/09/01 00:47:21;;;;;;;22.77;8.68;;;;;;;;;;4998630;28;20054;-83
2021/09/01 00:49:47;;;;;;;20.55;7.88;;;;;;;;;;4997772;28;20054;-84
2021/09/01 00:52:14;;;;;;;32.08;9.40;;;;;;;;;;4996265;28;20065;-84
2021/09/01 00:54:41;;;;;;;26.33;8.68;;;;;;;;;;4997711;28;20133;-83
2021/09/01 00:57:14;;;;;;;24.02;8.60;;;;;;;;;;4995665;28;20118;-83
2021/09/01 00:59:42;;;;;;;24.98;9.50;;;;;;;;;;4995850;28;20278;-84
2021/09/01 01:02:12;;;;;;;27.73;9.73;;;;;;;;;;4993922;28;20062;-83
2021/09/01 01:04:42;;;;;;;30.80;9.85;;;;;;;;;;4995827;28;20046;-83
2021/09/01 01:07:15;;;;;;;26.20;9.55;;;;;;;;;;4996012;28;20473;-83
2021/09/01 01:09:41;;;;;;;33.75;9.30;;;;;;;;;;4995692;28;20345;-83
2021/09/01 01:12:18;;;;;;;27.23;10.40;;;;;;;;;;4994193;28;20052;-84
2021/09/01 01:14:46;;;;;;;30.48;9.73;;;;;;;;;;4995245;28;20060;-83
2021/09/01 01:17:14;;;;;;;32.25;10.60;;;;;;;;;;4994452;28;20054;-83
2021/09/01 01:19:42;;;;;;;34.53;10.85;;;;;;;;;;4994647;28;20458;-84
2021/09/01 01:22:12;;;;;;;28.77;9.27;;;;;;;;;;4998114;28;20062;-84
2021/09/01 01:24:45;;;;;;;32.33;10.20;;;;;;;;;;4995046;28;20162;-83
2021/09/01 01:27:25;;;;;;;23.77;9.38;;;;;;;;;;4995835;28;20321;-83
2021/09/01 01:29:52;;;;;;;28.20;9.43;;;;;;;;;;4996109;28;20069;-83
2021/09/01 01:32:18;;;;;;;23.83;9.60;;;;;;;;;;4995750;28;20347;-83
2021/09/01 01:34:45;;;;;;;40.95;10.95;;;;;;;;;;4995490;28;20061;-83
2021/09/01 01:37:11;;;;;;;27.25;9.40;;;;;;;;;;4995596;28;20062;-83
2021/09/01 01:39:41;;;;;;;28.33;9.98;;;;;;;;;;4998425;28;20056;-83
2021/09/01 01:42:08;;;;;;;23.60;10.07;;;;;;;;;;5011599;28;20058;-84
2021/09/01 01:44:38;;;;;;;25.60;9.88;;;;;;;;;;5011214;28;20060;-83
2021/09/01 01:47:05;;;;;;;27.42;9.57;;;;;;;;;;4997268;28;20054;-83
2021/09/01 01:49:35;;;;;;;21.08;9.13;;;;;;;;;;5002805;28;20045;-83
2021/09/01 01:52:02;;;;;;;26.10;10.05;;;;;;;;;;5011700;28;20120;-83
2021/09/01 01:54:28;;;;;;;39.25;11.98;;;;;;;;;;5010887;28;20076;-83
2021/09/01 01:56:55;;;;;;;36.08;11.93;;;;;;;;;;4998154;28;20059;-83
2021/09/01 01:59:21;;;;;;;32.83;10.20;;;;;;;;;;4996996;28;20099;-83
2021/09/01 02:01:48;;;;;;;33.60;9.80;;;;;;;;;;5010087;28;20078;-82
2021/09/01 02:04:18;;;;;;;34.88;11.05;;;;;;;;;;5011870;28;20042;-83
2021/09/01 02:06:45;;;;;;;28.08;10.57;;;;;;;;;;5002596;28;20383;-84
2021/09/01 02:09:11;;;;;;;36.35;10.23;;;;;;;;;;4996395;28;20304;-83
2021/09/01 02:11:38;;;;;;;34.47;10.77;;;;;;;;;;4997274;28;20058;-84
2021/09/01 02:14:04;;;;;;;25.67;9.57;;;;;;;;;;4995617;28;20054;-83
2021/09/01 02:16:31;;;;;;;28.65;10.10;;;;;;;;;;4995874;28;20124;-83
2021/09/01 02:18:58;;;;;;;24.90;10.93;;;;;;;;;;4994229;28;20061;-83
2021/09/01 02:21:24;;;;;;;48.80;11.70;;;;;;;;;;4995018;28;20237;-83
2021/09/01 02:23:51;;;;;;;25.98;10.57;;;;;;;;;;4996096;28;20437;-84
2021/09/01 02:26:17;;;;;;;27.58;9.30;;;;;;;;;;5017451;28;20050;-83
2021/09/01 02:28:46;;;;;;;37.67;10.43;;;;;;;;;;5019189;28;20061;-83
2021/09/01 02:31:12;;;;;;;33.70;11.73;;;;;;;;;;5053423;28;20041;-82
2021/09/01 02:33:39;;;;;;;34.25;10.23;;;;;;;;;;5028145;28;20067;-82
2021/09/01 02:36:06;;;;;;;26.17;10.05;;;;;;;;;;5034109;28;20038;-82
2021/09/01 02:38:34;;;;;;;27.60;10.60;;;;;;;;;;5058296;28;20422;-83
2021/09/01 02:41:00;;;;;;;33.42;11.25;;;;;;;;;;5019287;28;20115;-83
2021/09/01 02:43:34;;;;;;;30.00;10.43;;;;;;;;;;5019243;28;20042;-84
2021/09/01 02:46:00;;;;;;;36.63;11.45;;;;;;;;;;5051836;27;20057;-83
2021/09/01 02:48:27;;;;;;;35.40;11.30;;;;;;;;;;5052160;28;20050;-83
2021/09/01 02:50:53;;;;;;;43.95;13.20;;;;;;;;;;5018650;28;20053;-84
2021/09/01 02:53:20;;;;;;;39.90;11.82;;;;;;;;;;5003483;28;20058;-84
2021/09/01 02:55:46;;;;;;;32.40;12.57;;;;;;;;;;4999678;28;20456;-84
2021/09/01 02:58:16;;;;;;;34.33;12.10;;;;;;;;;;4997847;28;20046;-83
2021/09/01 03:00:43;;;;;;;35.45;11.15;;;;;;;;;;5002634;28;20046;-83
2021/09/01 03:03:09;;;;;;;31.95;11.00;;;;;;;;;;5008774;28;20050;-83
2021/09/01 03:05:52;;;;;;;27.52;10.73;;;;;;;;;;5009453;28;20035;-83
2021/09/01 03:08:18;;;;;;;28.65;10.30;;;;;;;;;;5006560;28;20054;-83
2021/09/01 03:10:45;;;;;;;24.92;10.73;;;;;;;;;;5014277;28;20106;-82
2021/09/01 03:13:15;;;;;;;26.60;9.90;;;;;;;;;;5012979;28;20063;-83
2021/09/01 03:15:41;;;;;;;27.02;9.88;;;;;;;;;;5001061;28;20055;-83
2021/09/01 03:18:08;;;;;;;20.77;9.38;;;;;;;;;;4999541;28;20387;-83
2021/09/01 03:20:37;;;;;;;18.42;8.63;;;;;;;;;;4999695;28;20050;-83
2021/09/01 03:23:03;;;;;;;27.50;10.18;;;;;;;;;;5000394;28;20140;-83
2021/09/01 03:25:30;;;;;;;22.52;9.18;;;;;;;;;;4985079;28;20059;-83
2021/09/01 03:27:59;;;;;;;31.25;9.52;;;;;;;;;;4980217;28;20066;-83
2021/09/01 03:30:26;;;;;;;22.98;8.98;;;;;;;;;;5012918;28;20065;-82
2021/09/01 03:32:53;;;;;;;28.60;9.52;;;;;;;;;;5007857;28;20046;-83
2021/09/01 03:35:20;;;;;;;33.22;9.90;;;;;;;;;;5011919;28;20099;-82
2021/09/01 03:44:38;;;;;;;27.25;9.77;;;;;;;;;;5494127;22;20063;-83
2021/09/01 03:47:05;;;;;;;24.83;9.23;;;;;;;;;;5098325;28;20083;-82
2021/09/01 03:49:32;;;;;;;26.52;9.73;;;;;;;;;;5100790;28;20059;-83
2021/09/01 03:52:12;;;;;;;33.47;11.05;;;;;;;;;;5088758;28;20044;-84
2021/09/01 03:54:45;;;;;;;34.10;12.10;;;;;;;;;;5105342;28;20048;-84
2021/09/01 03:57:12;;;;;;;39.60;13.35;;;;;;;;;;5086862;28;20056;-84
2021/09/01 03:59:41;;;;;;;30.80;12.70;;;;;;;;;;5104419;28;20044;-84
2021/09/01 04:02:10;;;;;;;34.70;12.70;;;;;;;;;;5100025;28;20044;-83
2021/09/01 04:04:40;;;;;;;34.80;12.07;;;;;;;;;;5100087;28;20097;-83
2021/09/01 04:07:06;;;;;;;34.00;12.27;;;;;;;;;;5064983;28;20047;-84
2021/09/01 04:09:33;;;;;;;34.28;12.55;;;;;;;;;;5081129;28;20052;-83
2021/09/01 04:12:04;;;;;;;25.80;12.68;;;;;;;;;;5081982;28;20078;-83
2021/09/01 04:14:30;;;;;;;27.20;11.52;;;;;;;;;;5079434;28;20143;-83
2021/09/01 04:17:00;;;;;;;31.60;11.32;;;;;;;;;;5099541;28;20313;-83
2021/09/01 04:19:29;;;;;;;24.40;10.75;;;;;;;;;;5082682;28;20217;-84
2021/09/01 04:21:56;;;;;;;26.13;11.27;;;;;;;;;;5093117;28;20048;-82
2021/09/01 04:24:23;;;;;;;31.23;11.65;;;;;;;;;;5110863;28;20132;-83
2021/09/01 04:26:50;;;;;;;29.05;11.90;;;;;;;;;;5093376;28;20105;-83
2021/09/01 04:29:23;;;;;;;24.40;11.55;;;;;;;;;;5093265;28;20075;-83
2021/09/01 04:31:50;;;;;;;36.05;12.00;;;;;;;;;;5109173;28;20067;-83
2021/09/01 04:34:17;;;;;;;41.00;12.25;;;;;;;;;;5107180;28;20056;-83
2021/09/01 04:36:43;;;;;;;31.65;11.18;;;;;;;;;;5080724;28;20315;-83
2021/09/01 04:39:10;;;;;;;29.30;11.38;;;;;;;;;;5072242;28;20131;-83
2021/09/01 04:41:38;;;;;;;22.42;10.32;;;;;;;;;;5077785;28;20060;-83
2021/09/01 04:44:09;;;;;;;34.42;11.13;;;;;;;;;;5077166;28;20090;-83
2021/09/01 04:46:47;;;;;;;29.20;10.77;;;;;;;;;;5075768;28;20051;-83
2021/09/01 04:49:18;;;;;;;32.33;11.07;;;;;;;;;;5078395;28;20047;-83
2021/09/01 04:51:45;;;;;;;25.60;11.13;;;;;;;;;;5090673;28;20036;-83
2021/09/01 04:54:13;;;;;;;26.80;10.90;;;;;;;;;;5085196;28;20057;-83
2021/09/01 04:56:43;;;;;;;32.28;11.43;;;;;;;;;;5076548;28;20052;-83
2021/09/01 04:59:09;;;;;;;33.20;11.55;;;;;;;;;;5074987;28;20436;-83
2021/09/01 05:01:37;;;;;;;27.52;11.10;;;;;;;;;;5084421;28;20148;-84
2021/09/01 05:04:08;;;;;;;31.13;11.73;;;;;;;;;;5071493;28;20219;-83
2021/09/01 05:06:38;;;;;;;27.40;11.10;;;;;;;;;;5065353;28;20083;-83
2021/09/01 05:09:09;;;;;;;33.45;10.75;;;;;;;;;;5092471;28;20067;-83
2021/09/01 05:11:37;;;;;;;27.45;11.85;;;;;;;;;;5075231;28;20040;-83
2021/09/01 05:14:04;;;;;;;35.22;11.05;;;;;;;;;;5078750;28;20420;-84
2021/09/01 05:16:31;;;;;;;28.27;11.88;;;;;;;;;;5087442;28;20082;-84
2021/09/01 05:19:07;;;;;;;29.40;11.52;;;;;;;;;;5075107;28;20420;-84
2021/09/01 05:21:38;;;;;;;28.25;11.13;;;;;;;;;;5094405;28;20040;-82
2021/09/01 05:24:05;;;;;;;29.50;11.50;;;;;;;;;;5074070;28;20044;-83
2021/09/01 05:26:34;;;;;;;39.90;13.85;;;;;;;;;;5075274;28;20071;-82
2021/09/01 05:29:05;;;;;;;29.85;11.30;;;;;;;;;;5074619;28;20063;-82
2021/09/01 05:31:32;;;;;;;26.58;12.45;;;;;;;;;;5056300;28;20044;-82
2021/09/01 05:34:05;;;;;;;27.08;11.63;;;;;;;;;;5074287;28;20049;-81
2021/09/01 05:36:32;;;;;;;26.58;13.18;;;;;;;;;;5080276;28;20079;-82
2021/09/01 05:39:02;;;;;;;29.42;12.23;;;;;;;;;;5076057;28;20131;-82
2021/09/01 05:41:30;;;;;;;29.10;13.18;;;;;;;;;;5065160;28;20044;-81
2021/09/01 05:43:58;;;;;;;32.50;13.52;;;;;;;;;;5087566;28;20066;-81
2021/09/01 05:46:31;;;;;;;31.73;12.95;;;;;;;;;;5105212;28;20115;-81
2021/09/01 05:48:59;;;;;;;20.00;10.68;;;;;;;;;;5091086;28;20050;-81
2021/09/01 05:51:26;;;;;;;29.00;12.02;;;;;;;;;;5103345;28;20370;-82
2021/09/01 05:53:55;;;;;;;30.75;9.57;;;;;;;;;;5091037;28;20221;-81
2021/09/01 05:56:26;;;;;;;26.00;7.75;;;;;;;;;;5056213;28;20543;-82
2021/09/01 05:58:59;;;;;;;18.33;6.40;;;;;;;;;;5096344;28;20047;-82
2021/09/01 06:01:28;;;;;;;21.60;6.88;;;;;;;;;;5077641;28;20102;-81
2021/09/01 06:04:04;;;;;;;20.55;5.13;;;;;;;;;;5081356;28;20226;-82
2021/09/01 06:06:33;;;;;;;16.63;4.50;;;;;;;;;;5076238;28;20044;-82
2021/09/01 06:09:12;;;;;;;16.95;4.43;;;;;;;;;;5089589;28;20049;-82
2021/09/01 06:11:42;;;;;;;15.52;4.47;;;;;;;;;;5087477;28;20123;-83
2021/09/01 06:14:14;;;;;;;15.60;5.35;;;;;;;;;;5092158;28;20063;-82
2021/09/01 06:16:40;;;;;;;17.17;4.70;;;;;;;;;;5074345;28;20078;-82
2021/09/01 06:19:07;;;;;;;16.05;5.00;;;;;;;;;;5073152;28;20086;-83
2021/09/01 06:21:38;;;;;;;17.02;4.95;;;;;;;;;;5073823;28;20131;-83
2021/09/01 06:24:09;;;;;;;12.18;4.70;;;;;;;;;;5057506;28;20071;-82
2021/09/01 06:26:36;;;;;;;19.58;5.10;;;;;;;;;;5108202;28;20106;-83
2021/09/01 06:29:03;;;;;;;22.80;5.60;;;;;;;;;;5091742;28;20055;-81
2021/09/01 06:31:35;;;;;;;16.80;5.10;;;;;;;;;;5074774;28;20094;-82
2021/09/01 06:34:05;;;;;;;11.45;4.75;;;;;;;;;;5092704;28;20063;-82
2021/09/01 06:36:34;;;;;;;19.13;5.40;;;;;;;;;;5093257;28;20048;-82
2021/09/01 06:39:04;;;;;;;19.63;5.50;;;;;;;;;;5085575;28;20036;-83
2021/09/01 06:41:32;;;;;;;20.88;5.88;;;;;;;;;;5072566;28;20037;-82
2021/09/01 06:44:03;;;;;;;14.88;4.70;;;;;;;;;;5101113;28;20134;-83
2021/09/01 06:46:31;;;;;;;20.65;5.78;;;;;;;;;;5090700;28;20079;-82
2021/09/01 06:49:01;;;;;;;17.65;5.53;;;;;;;;;;5101538;28;20043;-82
2021/09/01 06:51:39;;;;;;;18.40;5.15;;;;;;;;;;5092849;28;20062;-82
2021/09/01 06:54:05;;;;;;;13.10;5.35;;;;;;;;;;5075633;28;20079;-82
2021/09/01 06:56:36;;;;;;;18.08;5.45;;;;;;;;;;5084915;28;20111;-82
2021/09/01 06:59:03;;;;;;;15.90;4.70;;;;;;;;;;5096541;28;20083;-82
2021/09/01 07:01:31;;;;;;;14.68;5.13;;;;;;;;;;5105237;28;20035;-82
2021/09/01 07:04:08;;;;;;;16.15;5.00;;;;;;;;;;5121878;28;20052;-82
2021/09/01 07:06:36;;;;;;;17.48;4.80;;;;;;;;;;5098101;28;20048;-82
2021/09/01 07:09:09;;;;;;;13.90;4.60;;;;;;;;;;5060886;28;20071;-82
2021/09/01 07:11:38;;;;;;;20.48;5.20;;;;;;;;;;5075335;28;20052;-83
2021/09/01 07:14:08;;;;;;;12.95;5.10;;;;;;;;;;5076816;28;20047;-82
2021/09/01 07:16:43;;;;;;;17.75;5.43;;;;;;;;;;5079150;28;20543;-81
2021/09/01 07:19:18;;;;;;;14.88;5.18;;;;;;;;;;5069457;28;20293;-81
2021/09/01 07:21:46;;;;;;;15.43;5.63;;;;;;;;;;5056470;28;20221;-83
2021/09/01 07:24:15;;;;;;;18.60;5.15;;;;;;;;;;5062370;28;20104;-82
2021/09/01 07:26:44;;;;;;;17.08;5.43;;;;;;;;;;5077891;28;20044;-81
2021/09/01 07:29:22;;;;;;;15.63;4.95;;;;;;;;;;5062521;28;20195;-82
2021/09/01 07:31:49;;;;;;;19.58;5.25;;;;;;;;;;5069090;28;20297;-81
2021/09/01 07:34:20;;;;;;;15.02;5.45;;;;;;;;;;5079923;28;20217;-83
2021/09/01 07:36:49;;;;;;;19.52;4.65;;;;;;;;;;5060308;28;20052;-81
2021/09/01 07:39:16;;;;;;;16.20;4.75;;;;;;;;;;5075776;28;20142;-81
2021/09/01 07:41:46;;;;;;;19.63;5.00;;;;;;;;;;5068637;28;20062;-81
2021/09/01 07:44:16;;;;;;;15.43;4.63;;;;;;;;;;5065939;28;20067;-81
2021/09/01 07:46:45;;;;;;;20.23;5.10;;;;;;;;;;5087292;28;20182;-81
2021/09/01 07:49:15;;;;;;;19.40;4.88;;;;;;;;;;5065089;28;20043;-82
2021/09/01 07:51:47;;;;;;;21.90;4.75;;;;;;;;;;5071670;28;20062;-82
2021/09/01 07:54:15;;;;;;;15.02;4.43;;;;;;;;;;5088641;28;20058;-81
2021/09/01 07:56:48;;;;;;;17.23;5.05;;;;;;;;;;5071084;28;20055;-82
2021/09/01 07:59:18;;;;;;;20.08;4.40;;;;;;;;;;5072176;28;20110;-82
2021/09/01 08:01:48;;;;;;;18.17;4.70;;;;;;;;;;5105178;28;20207;-82
2021/09/01 08:04:21;;;;;;;19.48;4.65;;;;;;;;;;5087438;28;20251;-82
2021/09/01 08:06:59;;;;;;;16.85;4.40;;;;;;;;;;5088895;28;20442;-82
2021/09/01 08:09:25;;;;;;;11.37;4.03;;;;;;;;;;5070824;28;20067;-82
2021/09/01 08:11:54;;;;;;;17.17;4.72;;;;;;;;;;5082717;28;20470;-81
2021/09/01 08:14:22;;;;;;;19.58;5.10;;;;;;;;;;5106365;28;20032;-81
2021/09/01 08:16:49;;;;;;;15.63;5.00;;;;;;;;;;5097085;28;20048;-81
2021/09/01 08:19:19;;;;;;;13.60;4.05;;;;;;;;;;5056960;28;20142;-81
2021/09/01 08:21:52;;;;;;;18.17;5.50;;;;;;;;;;5069808;28;20058;-82
2021/09/01 08:24:22;;;;;;;18.27;4.88;;;;;;;;;;5085730;28;20155;-82
2021/09/01 08:26:51;;;;;;;16.77;4.95;;;;;;;;;;5052625;28;20270;-81
2021/09/01 08:29:22;;;;;;;14.07;4.85;;;;;;;;;;5070340;28;20277;-82
2021/09/01 08:31:56;;;;;;;15.35;4.97;;;;;;;;;;5069917;28;20044;-82
2021/09/01 08:34:23;;;;;;;18.23;5.22;;;;;;;;;;5083589;28;20420;-83
2021/09/01 08:36:56;;;;;;;12.23;3.83;;;;;;;;;;5073262;28;20418;-82
2021/09/01 08:39:24;;;;;;;12.52;4.32;;;;;;;;;;5083775;28;20044;-82
2021/09/01 08:41:51;;;;;;;15.93;4.40;;;;;;;;;;5085534;28;20052;-81
2021/09/01 08:44:18;;;;;;;16.52;4.72;;;;;;;;;;5083814;28;20060;-81
2021/09/01 08:46:48;;;;;;;17.95;4.72;;;;;;;;;;5083726;28;20048;-81
2021/09/01 08:49:17;;;;;;;14.07;4.85;;;;;;;;;;5082279;28;20243;-81
2021/09/01 08:51:47;;;;;;;15.20;4.20;;;;;;;;;;5084141;28;20097;-81
2021/09/01 08:54:15;;;;;;;18.45;4.63;;;;;;;;;;5067683;28;20051;-81
2021/09/01 08:56:42;;;;;;;18.50;4.43;;;;;;;;;;5099001;28;20059;-82
2021/09/01 08:59:11;;;;;;;17.02;5.15;;;;;;;;;;5078812;28;20196;-82
2021/09/01 09:01:45;;;;;;;16.73;5.03;;;;;;;;;;5086877;28;20228;-82
2021/09/01 09:04:29;;;;;;;9.93;4.45;;;;;;;;;;5103547;28;20206;-82
2021/09/01 09:06:59;;;;;;;16.60;5.60;;;;;;;;;;5067531;28;20052;-82
2021/09/01 09:09:39;;;;;;;15.10;5.10;;;;;;;;;;5073008;28;20040;-81
2021/09/01 09:12:11;;;;;;;9.90;4.93;;;;;;;;;;5073008;28;20051;-83
2021/09/01 09:14:40;;;;;;;17.88;6.38;;;;;;;;;;5072158;28;20382;-81
2021/09/01 09:17:11;;;;;;;21.42;5.47;;;;;;;;;;5069823;28;20048;-83
2021/09/01 09:19:43;;;;;;;14.77;5.57;;;;;;;;;;5052198;28;20374;-82
2021/09/01 09:22:34;;;;;;;15.35;5.55;;;;;;;;;;5070678;28;20451;-82
2021/09/01 09:25:24;;;;;;;15.25;4.95;;;;;;;;;;5077167;28;20085;-82
2021/09/01 09:27:58;;;;;;;13.52;5.80;;;;;;;;;;5069233;28;20079;-82
2021/09/01 09:30:37;;;;;;;20.52;5.43;;;;;;;;;;5102270;28;20205;-82
2021/09/01 09:33:04;;;;;;;19.15;5.75;;;;;;;;;;5078605;28;20055;-82
2021/09/01 09:35:52;;;;;;;10.90;5.50;;;;;;;;;;5066115;28;20041;-83
2021/09/01 09:38:42;;;;;;;16.30;5.30;;;;;;;;;;5048430;28;20488;-82
2021/09/01 09:41:30;;;;;;;15.82;5.75;;;;;;;;;;5086926;28;20096;-83
2021/09/01 09:44:04;;;;;;;13.35;4.30;;;;;;;;;;5084893;28;20052;-81
2021/09/01 09:46:45;;;;;;;15.85;5.32;;;;;;;;;;5097232;28;20043;-81
2021/09/01 09:49:12;;;;;;;15.52;4.63;;;;;;;;;;5069554;28;20113;-81
2021/09/01 09:51:42;;;;;;;16.17;5.32;;;;;;;;;;5049392;28;20293;-82
2021/09/01 09:54:35;;;;;;;13.18;4.93;;;;;;;;;;5065567;28;20048;-81
2021/09/01 09:57:13;;;;;;;13.00;4.65;;;;;;;;;;5045837;28;20063;-82
2021/09/01 09:59:49;;;;;;;15.15;4.93;;;;;;;;;;5070119;28;20055;-84
2021/09/01 10:02:20;;;;;;;16.05;4.07;;;;;;;;;;5086627;28;20505;-82
2021/09/01 10:04:50;;;;;;;11.55;4.45;;;;;;;;;;5088491;28;20048;-82
2021/09/01 10:07:27;;;;;;;13.52;4.65;;;;;;;;;;5101095;28;20113;-82
2021/09/01 10:09:59;;;;;;;11.52;4.13;;;;;;;;;;5086734;28;20146;-82
2021/09/01 10:12:26;;;;;;;13.15;4.72;;;;;;;;;;5068550;28;20113;-82
2021/09/01 10:14:56;;;;;;;13.75;4.50;;;;;;;;;;5088999;28;20329;-83
2021/09/01 10:17:23;;;;;;;15.48;4.38;;;;;;;;;;5068003;28;20056;-83
2021/09/01 10:19:53;;;;;;;14.65;4.50;;;;;;;;;;5079215;28;20045;-83
2021/09/01 10:22:24;;;;;;;15.30;4.97;;;;;;;;;;5086397;28;20094;-82
2021/09/01 10:24:55;;;;;;;13.35;3.75;;;;;;;;;;5079980;28;20044;-83
2021/09/01 10:27:30;;;;;;;16.58;4.82;;;;;;;;;;5093390;28;20236;-83
2021/09/01 10:30:19;;;;;;;8.85;3.53;;;;;;;;;;5071321;28;20052;-82
2021/09/01 10:32:53;;;;;;;9.80;3.63;;;;;;;;;;5089592;28;20059;-82
2021/09/01 10:35:24;;;;;;;9.27;3.90;;;;;;;;;;5088833;28;20243;-82
2021/09/01 10:37:55;;;;;;;10.48;3.83;;;;;;;;;;5077187;28;20047;-82
2021/09/01 10:40:33;;;;;;;17.17;4.43;;;;;;;;;;5070595;28;20040;-83
2021/09/01 10:43:20;;;;;;;10.77;4.25;;;;;;;;;;5082260;28;20106;-87
2021/09/01 10:45:50;;;;;;;;;;;;;;;;;;5092044;28;20107;-87
2021/09/01 10:48:27;;;;;;;16.02;4.63;;;;;;;;;;5104000;28;19920;-87
2021/09/01 10:51:25;;;;;;;9.38;4.00;;;;;;;;;;5110857;28;20047;-87
2021/09/01 10:54:21;;;;;;;14.63;4.00;;;;;;;;;;5103457;28;20366;-86
2021/09/01 10:56:50;;;;;;;10.00;3.50;;;;;;;;;;5102040;28;20103;-87
2021/09/01 10:59:30;;;;;;;12.20;4.13;;;;;;;;;;5113850;28;20099;-87
2021/09/01 11:02:08;;;;;;;12.63;3.83;;;;;;;;;;5105278;28;20051;-87
2021/09/01 11:04:47;;;;;;;9.48;3.80;;;;;;;;;;5114959;28;20142;-87
2021/09/01 11:07:25;;;;;;;15.02;4.28;;;;;;;;;;5084145;28;20111;-87
2021/09/01 11:10:01;;;;;;;8.57;3.58;;;;;;;;;;5106302;27;20244;-87
2021/09/01 11:12:43;;;;;;;10.57;4.25;;;;;;;;;;5120588;27;20062;-87
2021/09/01 11:15:15;;;;;;;11.90;3.92;;;;;;;;;;5119422;27;20054;-87
2021/09/01 11:18:05;;;;;;;11.98;3.78;;;;;;;;;;5093939;28;20124;-87
2021/09/01 11:20:35;;;;;;;12.40;4.15;;;;;;;;;;5082019;28;20048;-86
2021/09/01 11:23:03;;;;;;;10.23;3.67;;;;;;;;;;5128468;27;20055;-87
2021/09/01 11:25:30;;;;;;;11.13;3.97;;;;;;;;;;5116130;27;20050;-87
2021/09/01 11:27:58;;;;;;;12.70;3.83;;;;;;;;;;5061120;28;20056;-87
2021/09/01 11:30:47;;;;;;;9.93;3.65;;;;;;;;;;5076516;28;20091;-87
2021/09/01 11:33:15;;;;;;;11.60;3.97;;;;;;;;;;5084878;28;20548;-87
2021/09/01 11:35:45;;;;;;;13.15;3.63;;;;;;;;;;5085131;28;20035;-87
2021/09/01 11:38:12;;;;;;;11.02;3.67;;;;;;;;;;5080935;28;20040;-87
2021/09/01 11:40:48;;;;;;;11.50;3.75;;;;;;;;;;5101855;28;20332;-87
2021/09/01 11:43:21;;;;;;;10.75;4.07;;;;;;;;;;5102577;28;20052;-87
2021/09/01 11:45:48;;;;;;;10.27;3.65;;;;;;;;;;5065330;28;20146;-87
2021/09/01 11:48:21;;;;;;;12.02;4.28;;;;;;;;;;5099966;28;20070;-87
2021/09/01 11:50:50;;;;;;;11.90;3.67;;;;;;;;;;5101237;28;20921;-86
2021/09/01 11:53:41;;;;;;;10.00;3.05;;;;;;;;;;5113946;28;20083;-87
2021/09/01 11:56:09;;;;;;;12.63;4.18;;;;;;;;;;5077843;28;20052;-88
2021/09/01 11:59:01;;;;;;;12.95;4.70;;;;;;;;;;5094243;28;20240;-87
2021/09/01 12:01:45;;;;;;;8.65;3.85;;;;;;;;;;5076107;28;20351;-88
2021/09/01 12:04:15;;;;;;;13.25;3.90;;;;;;;;;;5114458;28;20070;-88
2021/09/01 12:07:02;;;;;;;11.77;3.70;;;;;;;;;;5106529;27;20040;-88
2021/09/01 12:09:29;;;;;;;10.05;3.33;;;;;;;;;;5116178;28;20097;-86
2021/09/01 12:12:02;;;;;;;13.80;4.15;;;;;;;;;;5119421;27;20292;-87
2021/09/01 12:14:32;;;;;;;13.70;4.28;;;;;;;;;;5111542;28;20036;-88
2021/09/01 12:17:29;;;;;;;12.50;3.55;;;;;;;;;;5091909;28;20058;-88
2021/09/01 12:20:00;;;;;;;11.40;3.70;;;;;;;;;;5093502;28;20323;-87
2021/09/01 12:22:41;;;;;;;12.00;3.88;;;;;;;;;;5089835;28;20112;-87
2021/09/01 12:25:17;;;;;;;11.48;3.30;;;;;;;;;;5094671;28;20110;-87
2021/09/01 12:27:58;;;;;;;9.10;3.45;;;;;;;;;;5093768;28;20074;-87
2021/09/01 12:30:48;;;;;;;10.77;3.95;;;;;;;;;;5095525;28;20059;-88
2021/09/01 12:33:24;;;;;;;;;;;;;;;;;;5066440;28;20131;-87
2021/09/01 12:35:58;;;;;;;16.80;3.92;;;;;;;;;;5098827;28;19920;-87
2021/09/01 12:38:30;;;;;;;9.02;3.42;;;;;;;;;;5094684;28;20178;-88
2021/09/01 12:41:24;;;;;;;13.80;4.40;;;;;;;;;;5094650;28;20085;-87
2021/09/01 12:44:02;;;;;;;8.95;3.88;;;;;;;;;;5110392;28;20280;-87
2021/09/01 12:46:32;;;;;;;15.30;3.75;;;;;;;;;;5111536;28;20052;-87
2021/09/01 12:49:20;;;;;;;9.52;3.60;;;;;;;;;;5085321;28;20071;-87
2021/09/01 12:51:47;;;;;;;10.68;3.45;;;;;;;;;;5074177;28;20225;-87
2021/09/01 12:54:14;;;;;;;12.95;4.40;;;;;;;;;;5064081;28;20041;-88
2021/09/01 12:56:46;;;;;;;11.20;4.38;;;;;;;;;;5077713;28;20052;-87
2021/09/01 12:59:17;;;;;;;11.88;3.25;;;;;;;;;;5102906;28;20044;-87
2021/09/01 13:01:44;;;;;;;11.10;4.00;;;;;;;;;;5097702;28;20110;-87
2021/09/01 13:04:30;;;;;;;9.32;3.72;;;;;;;;;;5125719;27;20123;-87
2021/09/01 13:06:57;;;;;;;9.68;3.97;;;;;;;;;;5092499;28;20065;-88
2021/09/01 13:09:25;;;;;;;8.45;3.58;;;;;;;;;;5109058;28;20111;-86
2021/09/01 13:11:53;;;;;;;11.68;3.83;;;;;;;;;;5075189;28;20032;-87
2021/09/01 13:14:32;;;;;;;12.30;3.97;;;;;;;;;;5070836;28;20202;-88
2021/09/01 13:17:04;;;;;;;9.00;3.20;;;;;;;;;;5088484;28;20139;-88
2021/09/01 13:19:31;;;;;;;9.15;3.38;;;;;;;;;;5093968;28;20385;-85
2021/09/01 13:22:12;;;;;;;9.57;4.20;;;;;;;;;;5086652;28;20040;-86
2021/09/01 13:24:44;;;;;;;19.05;4.68;;;;;;;;;;5077746;28;20067;-86
2021/09/01 13:27:11;;;;;;;9.63;3.50;;;;;;;;;;5065718;28;20404;-86
2021/09/01 13:29:44;;;;;;;11.65;3.55;;;;;;;;;;5082146;28;20157;-88
2021/09/01 13:32:11;;;;;;;10.18;3.80;;;;;;;;;;5067761;28;20048;-85
2021/09/01 13:34:40;;;;;;;9.80;3.35;;;;;;;;;;5108420;28;20456;-86
2021/09/01 13:37:11;;;;;;;7.70;3.67;;;;;;;;;;5108746;28;20056;-86
2021/09/01 13:39:38;;;;;;;10.73;3.72;;;;;;;;;;5074828;28;20343;-87
2021/09/01 13:42:12;;;;;;;12.93;3.42;;;;;;;;;;5071907;28;20098;-86
2021/09/01 13:44:38;;;;;;;10.35;3.55;;;;;;;;;;5094417;28;20103;-88
2021/09/01 13:47:11;;;;;;;11.35;3.78;;;;;;;;;;5108158;27;20056;-87
2021/09/01 13:49:38;;;;;;;16.60;3.95;;;;;;;;;;5073981;28;20450;-88
2021/09/01 13:52:09;;;;;;;10.15;4.50;;;;;;;;;;5055290;28;20077;-88
2021/09/01 13:54:36;;;;;;;10.95;3.85;;;;;;;;;;5055559;28;20104;-87
2021/09/01 13:57:07;;;;;;;13.00;4.47;;;;;;;;;;5066770;28;20138;-87
2021/09/01 13:59:49;;;;;;;8.45;3.42;;;;;;;;;;5082959;28;20061;-86
2021/09/01 14:02:17;;;;;;;11.80;4.05;;;;;;;;;;5079224;28;20052;-87
2021/09/01 14:04:44;;;;;;;8.77;3.65;;;;;;;;;;5056351;28;20049;-87
2021/09/01 14:07:22;;;;;;;11.77;4.03;;;;;;;;;;5087918;28;20074;-88
2021/09/01 14:09:53;;;;;;;7.88;3.28;;;;;;;;;;5082535;28;20051;-88
2021/09/01 14:12:39;;;;;;;11.57;4.57;;;;;;;;;;5091896;28;20055;-88
2021/09/01 14:15:07;;;;;;;9.50;3.67;;;;;;;;;;5098081;28;20062;-86
2021/09/01 14:17:37;;;;;;;12.85;3.78;;;;;;;;;;5083353;28;20103;-87
2021/09/01 14:20:07;;;;;;;11.13;3.85;;;;;;;;;;5107667;28;20243;-87
2021/09/01 14:22:36;;;;;;;11.82;4.18;;;;;;;;;;5100509;28;20122;-88
2021/09/01 14:25:07;;;;;;;14.35;4.07;;;;;;;;;;5077069;28;20375;-87
2021/09/01 14:27:41;;;;;;;12.27;3.80;;;;;;;;;;5096731;28;20050;-88
2021/09/01 14:30:08;;;;;;;9.23;3.83;;;;;;;;;;5084490;28;20048;-88
2021/09/01 14:32:35;;;;;;;14.40;4.07;;;;;;;;;;5088137;28;20079;-86
2021/09/01 14:35:02;;;;;;;10.77;3.55;;;;;;;;;;5089824;28;20047;-86
2021/09/01 14:37:28;;;;;;;11.07;3.67;;;;;;;;;;5089450;28;20048;-87
2021/09/01 14:40:03;;;;;;;12.68;3.72;;;;;;;;;;5073885;28;20405;-87
2021/09/01 14:42:33;;;;;;;10.38;3.38;;;;;;;;;;5069376;28;20067;-87
2021/09/01 14:45:03;;;;;;;8.00;3.47;;;;;;;;;;5073007;28;20056;-88
2021/09/01 14:47:31;;;;;;;10.43;4.00;;;;;;;;;;5056146;28;20118;-86
2021/09/01 14:50:07;;;;;;;10.70;4.03;;;;;;;;;;5061999;28;20304;-87
2021/09/01 14:52:38;;;;;;;12.18;3.75;;;;;;;;;;5076910;28;20252;-88
2021/09/01 14:55:05;;;;;;;10.88;4.03;;;;;;;;;;5092712;28;20063;-87
2021/09/01 14:57:35;;;;;;;10.88;4.00;;;;;;;;;;5092227;28;20158;-87